Time;durP1;ratioP1;P1;durP2;ratioP2;P2;SDS_P1;SDS_P2;PMS_P1;PMS_P2;Temp;Humidity;BMP_temperature;BMP_pressure;BME280_temperature;BME280_humidity;BME280_pressure;Samples;Min_cycle;Max_cycle;Signal;HPM_P1;HPM_P2
2021/09/09 00:01:15;;;;;;;60.45;38.20;;;;;;;17.56;91.62;101300.50;5091359;28;20034;-79
2021/09/09 00:03:40;;;;;;;59.47;36.13;;;;;;;17.58;91.30;101292.75;5091122;28;20035;-79
2021/09/09 00:06:06;;;;;;;55.92;37.15;;;;;;;17.58;91.20;101289.19;5080061;28;20464;-79
2021/09/09 00:08:31;;;;;;;64.15;36.83;;;;;;;17.57;90.96;101279.25;5090019;28;20487;-79
2021/09/09 00:10:56;;;;;;;56.95;37.53;;;;;;;17.54;90.74;101286.22;5090864;28;20033;-80
2021/09/09 00:13:22;;;;;;;57.10;37.17;;;;;;;17.52;90.51;101294.00;5092837;28;20028;-79
2021/09/09 00:15:47;;;;;;;60.85;39.22;;;;;;;17.48;90.44;101290.22;5086635;28;20031;-79
2021/09/09 00:18:13;;;;;;;66.38;40.00;;;;;;;17.44;89.86;101280.94;5080771;28;20040;-79
2021/09/09 00:20:38;;;;;;;62.35;38.67;;;;;;;17.40;89.05;101279.91;5081592;28;20099;-79
2021/09/09 00:23:03;;;;;;;64.43;42.17;;;;;;;17.36;88.56;101279.72;5092934;28;20031;-80
2021/09/09 00:25:29;;;;;;;73.07;42.75;;;;;;;17.34;88.71;101281.13;5087884;28;20025;-80
2021/09/09 00:27:54;;;;;;;72.50;42.85;;;;;;;17.31;88.55;101283.38;5073695;28;20013;-80
2021/09/09 00:30:20;;;;;;;65.55;40.25;;;;;;;17.30;88.84;101270.72;5085330;28;20442;-80
2021/09/09 00:32:45;;;;;;;62.88;38.28;;;;;;;17.28;89.12;101270.22;5079078;28;20144;-79
2021/09/09 00:35:11;;;;;;;58.05;37.67;;;;;;;17.26;88.89;101272.47;5089657;28;20046;-79
2021/09/09 00:37:36;;;;;;;65.00;38.00;;;;;;;17.25;88.47;101278.28;5087105;28;20025;-79
2021/09/09 00:40:01;;;;;;;62.70;38.72;;;;;;;17.22;88.27;101270.66;5081616;28;20024;-79
2021/09/09 00:42:27;;;;;;;63.33;40.25;;;;;;;17.20;87.71;101265.44;5084440;28;20048;-79
2021/09/09 00:44:52;;;;;;;63.13;41.17;;;;;;;17.19;87.99;101272.06;5073776;28;20470;-80
2021/09/09 00:47:17;;;;;;;65.88;43.55;;;;;;;17.19;87.75;101274.81;5084695;28;20028;-79
2021/09/09 00:49:44;;;;;;;69.68;43.85;;;;;;;17.17;87.77;101268.81;5087644;28;20023;-79
2021/09/09 00:52:10;;;;;;;71.93;47.78;;;;;;;17.16;87.57;101269.94;5092003;28;20481;-80
2021/09/09 00:54:36;;;;;;;72.13;49.33;;;;;;;17.15;87.07;101278.50;5081744;28;20370;-79
2021/09/09 00:57:02;;;;;;;74.45;50.05;;;;;;;17.15;86.99;101279.31;5089504;28;20028;-79
2021/09/09 00:59:29;;;;;;;75.43;49.72;;;;;;;17.13;87.13;101278.78;5085299;28;20031;-79
2021/09/09 01:01:55;;;;;;;75.78;47.22;;;;;;;17.12;86.58;101285.44;5074171;28;20039;-79
2021/09/09 01:04:20;;;;;;;76.70;49.65;;;;;;;17.11;86.66;101283.81;5087194;28;20032;-79
2021/09/09 01:06:47;;;;;;;73.88;48.50;;;;;;;17.11;86.59;101278.31;5078506;28;20047;-79
2021/09/09 01:09:13;;;;;;;76.22;48.55;;;;;;;17.12;86.71;101271.66;5081211;28;20082;-80
2021/09/09 01:11:38;;;;;;;74.22;47.28;;;;;;;17.13;86.77;101278.78;5079406;28;20020;-80
2021/09/09 01:14:11;;;;;;;74.40;46.97;;;;;;;17.13;87.32;101278.78;5084769;28;20093;-79
2021/09/09 01:16:36;;;;;;;80.00;50.05;;;;;;;17.13;86.94;101276.03;5080463;28;20126;-80
2021/09/09 01:19:03;;;;;;;88.70;50.63;;;;;;;17.09;86.87;101280.53;5085563;28;20027;-79
2021/09/09 01:21:28;;;;;;;71.10;48.75;;;;;;;17.07;86.56;101275.31;5085565;28;20055;-79
2021/09/09 01:23:55;;;;;;;72.88;47.00;;;;;;;17.07;85.99;101271.75;5085726;28;20039;-80
2021/09/09 01:26:20;;;;;;;79.97;50.20;;;;;;;17.04;86.03;101267.66;5082355;28;20070;-80
2021/09/09 01:28:46;;;;;;;81.43;51.72;;;;;;;17.06;85.88;101270.13;5086723;28;20104;-79
2021/09/09 01:31:13;;;;;;;75.28;50.50;;;;;;;17.05;85.84;101269.31;5088527;28;20035;-79
2021/09/09 01:33:38;;;;;;;78.25;51.65;;;;;;;17.05;85.90;101265.72;5079512;28;20078;-80
2021/09/09 01:36:03;;;;;;;80.05;51.22;;;;;;;17.04;85.75;101266.84;5089958;28;20023;-79
2021/09/09 01:38:29;;;;;;;82.70;52.35;;;;;;;17.02;85.64;101264.44;5080279;28;20025;-79
2021/09/09 01:40:54;;;;;;;79.65;52.33;;;;;;;17.02;85.58;101271.84;5088985;28;20504;-80
2021/09/09 01:43:20;;;;;;;78.35;51.03;;;;;;;17.00;85.46;101272.16;5089794;28;20040;-80
2021/09/09 01:45:45;;;;;;;85.07;53.13;;;;;;;17.00;85.05;101271.34;5084506;28;20115;-79
2021/09/09 01:48:10;;;;;;;84.18;52.67;;;;;;;17.00;85.02;101265.84;5081624;28;20020;-80
2021/09/09 01:50:36;;;;;;;82.07;50.05;;;;;;;17.00;84.94;101276.88;5072649;28;20377;-80
2021/09/09 01:53:03;;;;;;;72.03;50.00;;;;;;;16.97;84.61;101263.69;5063119;28;20068;-79
2021/09/09 01:55:29;;;;;;;86.03;52.65;;;;;;;16.97;84.53;101271.94;5087754;28;20160;-79
2021/09/09 01:57:54;;;;;;;82.68;53.08;;;;;;;16.97;84.51;101263.69;5090998;28;20457;-80
2021/09/09 02:00:19;;;;;;;80.63;53.72;;;;;;;16.97;84.50;101266.44;5085459;28;20025;-79
2021/09/09 02:02:45;;;;;;;82.60;51.22;;;;;;;16.97;84.07;101266.44;5088116;28;20032;-79
2021/09/09 02:05:11;;;;;;;79.28;52.80;;;;;;;16.97;84.02;101260.94;5088477;28;20024;-80
2021/09/09 02:07:36;;;;;;;80.30;50.65;;;;;;;16.96;84.01;101259.31;5091283;28;20119;-79
2021/09/09 02:10:02;;;;;;;86.97;53.28;;;;;;;16.96;83.87;101251.03;5088333;28;20109;-79
2021/09/09 02:12:29;;;;;;;83.03;50.83;;;;;;;16.95;84.12;101255.75;5072580;28;20492;-78
2021/09/09 02:14:54;;;;;;;90.47;54.47;;;;;;;16.95;83.80;101246.66;5080752;28;20016;-79
2021/09/09 02:17:20;;;;;;;84.47;52.67;;;;;;;16.96;83.69;101251.03;5088476;28;20034;-79
2021/09/09 02:19:46;;;;;;;90.45;55.08;;;;;;;16.96;83.51;101242.78;5081225;28;20077;-79
2021/09/09 02:22:11;;;;;;;90.78;56.80;;;;;;;16.96;83.39;101253.78;5077944;28;20035;-79
2021/09/09 02:24:37;;;;;;;81.30;53.25;;;;;;;16.96;83.37;101242.78;5090085;28;20393;-79
2021/09/09 02:27:02;;;;;;;87.43;56.75;;;;;;;16.96;83.45;101242.78;5084627;28;20036;-79
2021/09/09 02:29:28;;;;;;;93.07;57.85;;;;;;;16.94;83.53;101239.50;5071107;28;20033;-80
2021/09/09 02:31:53;;;;;;;87.63;56.13;;;;;;;16.95;83.67;101238.41;5087344;28;20419;-79
2021/09/09 02:34:19;;;;;;;91.55;55.25;;;;;;;16.94;83.74;101234.00;5086067;28;20033;-80
2021/09/09 02:36:44;;;;;;;94.40;57.47;;;;;;;16.96;83.85;101237.28;5087144;28;20039;-79
2021/09/09 02:39:09;;;;;;;91.95;56.13;;;;;;;16.94;84.02;101228.50;5088608;28;20025;-80
2021/09/09 02:41:35;;;;;;;96.40;59.78;;;;;;;16.95;84.10;101230.94;5080759;28;20387;-79
2021/09/09 02:44:00;;;;;;;91.57;55.95;;;;;;;16.96;84.36;101231.75;5090413;28;20027;-79
2021/09/09 02:46:25;;;;;;;94.07;57.20;;;;;;;16.96;84.25;101234.50;5090763;28;20024;-79
2021/09/09 02:48:52;;;;;;;93.32;56.42;;;;;;;16.96;84.46;101231.75;5093869;28;20016;-80
2021/09/09 02:51:17;;;;;;;87.22;54.85;;;;;;;16.97;84.32;101236.97;5086139;28;20382;-80
2021/09/09 02:53:42;;;;;;;84.78;54.40;;;;;;;16.97;84.08;101228.72;5078848;28;20024;-79
2021/09/09 02:56:08;;;;;;;95.75;56.10;;;;;;;16.99;83.68;101223.69;5077159;28;20041;-79
2021/09/09 02:58:33;;;;;;;91.70;58.45;;;;;;;16.98;83.74;101224.81;5087819;28;20102;-79
2021/09/09 03:00:59;;;;;;;96.50;59.42;;;;;;;17.00;83.63;101224.53;5089287;28;20032;-79
2021/09/09 03:03:24;;;;;;;91.13;58.40;;;;;;;17.01;83.69;101223.41;5079590;28;20024;-80
2021/09/09 03:05:49;;;;;;;98.43;60.83;;;;;;;17.02;83.82;101223.09;5093922;28;20354;-79
2021/09/09 03:08:15;;;;;;;102.10;61.75;;;;;;;17.03;84.16;101221.16;5090276;28;20020;-80
2021/09/09 03:10:40;;;;;;;98.97;62.55;;;;;;;17.03;83.96;101221.16;5075785;28;20028;-80
2021/09/09 03:13:06;;;;;;;99.03;62.15;;;;;;;17.03;84.17;101210.16;5091648;28;20077;-80
2021/09/09 03:15:31;;;;;;;102.22;62.95;;;;;;;17.04;84.33;101214.53;5088529;28;20051;-79
2021/09/09 03:17:56;;;;;;;100.00;62.45;;;;;;;17.04;84.39;101222.78;5085132;28;20363;-79
2021/09/09 03:20:22;;;;;;;93.55;60.45;;;;;;;17.04;84.49;101217.28;5070863;28;20032;-80
2021/09/09 03:22:47;;;;;;;98.25;60.00;;;;;;;17.04;84.42;101222.78;5075964;28;20078;-79
2021/09/09 03:25:13;;;;;;;94.35;61.22;;;;;;;17.04;84.48;101217.28;5081622;28;20036;-79
2021/09/09 03:27:38;;;;;;;86.10;57.42;;;;;;;17.05;84.44;101222.50;5090492;28;20080;-79
2021/09/09 03:30:04;;;;;;;96.50;59.75;;;;;;;17.06;84.36;101206.78;5086431;28;20081;-79
2021/09/09 03:32:29;;;;;;;93.95;60.75;;;;;;;17.07;84.47;101213.91;5086761;28;20055;-79
2021/09/09 03:34:55;;;;;;;93.93;59.00;;;;;;;17.08;84.66;101201.78;5084844;28;20032;-79
2021/09/09 03:37:20;;;;;;;90.85;59.55;;;;;;;17.08;84.47;101212.78;5082432;28;20046;-80
2021/09/09 03:39:46;;;;;;;82.45;56.85;;;;;;;17.09;84.50;101208.91;5086156;28;20054;-79
2021/09/09 03:42:11;;;;;;;93.55;58.65;;;;;;;17.08;84.48;101208.09;5089376;28;20055;-79
2021/09/09 03:44:36;;;;;;;83.43;58.30;;;;;;;17.08;84.76;101207.28;5082771;28;20085;-79
2021/09/09 03:47:02;;;;;;;82.88;54.05;;;;;;;17.10;84.56;101205.00;5074354;28;20020;-79
2021/09/09 03:49:27;;;;;;;89.65;59.03;;;;;;;17.11;84.60;101203.09;5084475;28;20043;-79
2021/09/09 03:51:53;;;;;;;86.60;56.90;;;;;;;17.12;84.70;101208.28;5077059;28;20028;-79
2021/09/09 03:54:19;;;;;;;77.75;52.72;;;;;;;17.13;84.66;101204.41;5086099;28;20037;-79
2021/09/09 03:56:44;;;;;;;81.45;53.83;;;;;;;17.15;84.65;101207.66;5077494;28;20017;-79
2021/09/09 03:59:09;;;;;;;75.65;52.85;;;;;;;17.18;84.56;101207.03;5085462;28;20021;-79
2021/09/09 04:01:35;;;;;;;72.75;49.78;;;;;;;17.21;84.41;101206.44;5087502;28;20028;-79
2021/09/09 04:04:00;;;;;;;77.10;53.13;;;;;;;17.25;84.37;101207.47;5088764;28;20443;-80
2021/09/09 04:06:26;;;;;;;75.18;50.50;;;;;;;17.28;84.43;101201.31;5078806;28;20032;-79
2021/09/09 04:08:51;;;;;;;76.70;51.88;;;;;;;17.32;84.17;101201.50;5087513;28;20043;-79
2021/09/09 04:11:16;;;;;;;72.40;49.10;;;;;;;17.34;84.24;101199.28;5080114;28;20444;-80
2021/09/09 04:13:42;;;;;;;72.72;49.22;;;;;;;17.36;84.45;101201.72;5071783;28;20035;-79
2021/09/09 04:16:07;;;;;;;71.88;48.10;;;;;;;17.38;84.10;101204.97;5088567;28;20024;-79
2021/09/09 04:18:34;;;;;;;73.20;48.40;;;;;;;17.37;84.03;101200.59;5085537;28;20024;-80
2021/09/09 04:20:59;;;;;;;71.00;48.75;;;;;;;17.35;84.18;101198.16;5093277;28;20024;-80
2021/09/09 04:23:25;;;;;;;74.10;49.85;;;;;;;17.35;84.03;101194.56;5083675;28;20032;-79
2021/09/09 04:25:50;;;;;;;78.10;50.15;;;;;;;17.33;84.21;101205.09;5088980;28;20453;-79
2021/09/09 04:28:15;;;;;;;85.05;52.80;;;;;;;17.31;84.41;101202.66;5088171;28;20012;-80
2021/09/09 04:30:41;;;;;;;87.95;55.65;;;;;;;17.30;84.75;101196.31;5082031;28;20419;-79
2021/09/09 04:33:06;;;;;;;84.45;54.10;;;;;;;17.31;85.26;101205.41;5081360;28;20024;-79
2021/09/09 04:35:32;;;;;;;90.45;53.58;;;;;;;17.30;85.36;101188.06;5083251;28;20416;-79
2021/09/09 04:37:57;;;;;;;84.68;53.92;;;;;;;17.31;85.63;101195.19;5090915;28;20035;-79
2021/09/09 04:40:22;;;;;;;90.50;55.53;;;;;;;17.30;85.77;101181.75;5091105;28;20081;-79
2021/09/09 04:42:48;;;;;;;91.15;54.67;;;;;;;17.30;86.01;101188.06;5087854;28;20051;-79
2021/09/09 04:45:13;;;;;;;90.63;55.50;;;;;;;17.30;86.65;101185.31;5070130;28;20505;-79
2021/09/09 04:47:39;;;;;;;82.93;51.67;;;;;;;17.31;86.49;101184.16;5087288;28;20027;-80
2021/09/09 04:50:05;;;;;;;95.30;54.50;;;;;;;17.30;86.86;101177.03;5088891;28;20024;-79
2021/09/09 04:52:30;;;;;;;91.90;54.58;;;;;;;17.31;87.01;101183.34;5091663;28;20078;-79
2021/09/09 04:54:56;;;;;;;89.57;54.58;;;;;;;17.30;87.16;101177.03;5092688;28;20023;-79
2021/09/09 04:57:22;;;;;;;89.32;55.00;;;;;;;17.31;87.26;101169.59;5090942;28;20031;-79
2021/09/09 04:59:48;;;;;;;93.60;55.70;;;;;;;17.30;87.43;101167.97;5092812;28;20043;-79
2021/09/09 05:02:13;;;;;;;94.07;56.78;;;;;;;17.29;87.52;101180.91;5087563;28;20036;-79
2021/09/09 05:04:39;;;;;;;84.10;54.15;;;;;;;17.31;87.80;101177.84;5092579;28;20020;-80
2021/09/09 05:07:05;;;;;;;85.50;53.40;;;;;;;17.31;87.80;101180.59;5084077;28;20035;-79
2021/09/09 05:09:31;;;;;;;87.57;54.33;;;;;;;17.30;87.93;101174.28;5090740;28;20023;-79
2021/09/09 05:11:56;;;;;;;86.28;52.20;;;;;;;17.29;87.83;101172.63;5091059;28;20106;-80
2021/09/09 05:14:22;;;;;;;82.10;52.92;;;;;;;17.31;88.05;101181.41;5089716;28;20535;-80
2021/09/09 05:16:47;;;;;;;86.28;53.92;;;;;;;17.31;87.95;101173.16;5091343;28;20024;-80
2021/09/09 05:19:12;;;;;;;92.00;55.72;;;;;;;17.33;87.92;101172.03;5093323;28;20031;-80
2021/09/09 05:21:38;;;;;;;79.30;52.20;;;;;;;17.35;88.01;101178.03;5089935;28;20401;-80
2021/09/09 05:24:04;;;;;;;90.30;53.10;;;;;;;17.37;88.20;101173.84;5089598;28;20024;-80
2021/09/09 05:26:29;;;;;;;90.72;55.50;;;;;;;17.40;88.16;101172.41;5094273;28;20028;-80
2021/09/09 05:28:55;;;;;;;86.45;55.13;;;;;;;17.43;88.56;101171.78;5089569;28;20031;-79
2021/09/09 05:31:20;;;;;;;91.38;54.63;;;;;;;17.44;88.21;101171.50;5086368;28;20207;-80
2021/09/09 05:33:46;;;;;;;93.55;55.92;;;;;;;17.46;88.50;101179.44;5089990;28;20020;-79
2021/09/09 05:36:12;;;;;;;94.90;56.28;;;;;;;17.47;88.36;101173.63;5087124;28;20466;-80
2021/09/09 05:38:38;;;;;;;89.43;54.13;;;;;;;17.48;88.42;101169.72;5090992;28;20020;-80
2021/09/09 05:41:03;;;;;;;87.60;55.38;;;;;;;17.51;88.42;101176.56;5087949;28;20059;-80
2021/09/09 05:43:28;;;;;;;94.10;54.38;;;;;;;17.52;88.51;101178.22;5090023;28;20368;-80
2021/09/09 05:45:54;;;;;;;89.32;57.55;;;;;;;17.55;88.42;101171.25;5092487;28;20473;-80
2021/09/09 05:48:19;;;;;;;82.70;51.88;;;;;;;17.55;88.51;101166.56;5088457;28;20020;-80
2021/09/09 05:50:45;;;;;;;86.50;53.17;;;;;;;17.57;88.55;101178.09;5072747;28;20465;-80
2021/09/09 05:53:10;;;;;;;85.50;53.53;;;;;;;17.59;88.39;101178.56;5090064;28;20077;-80
2021/09/09 05:55:35;;;;;;;91.40;55.00;;;;;;;17.62;88.54;101177.13;5090067;28;20357;-80
2021/09/09 05:58:01;;;;;;;88.82;54.22;;;;;;;17.63;88.55;101173.28;5083084;28;20047;-80
2021/09/09 06:00:26;;;;;;;85.80;52.20;;;;;;;17.65;88.67;101171.84;5084024;28;20085;-80
2021/09/09 06:02:52;;;;;;;85.70;53.65;;;;;;;17.66;88.36;101170.69;5084486;28;20469;-80
2021/09/09 06:05:18;;;;;;;87.85;55.33;;;;;;;17.71;88.47;101170.56;5081146;28;20036;-80
2021/09/09 06:07:44;;;;;;;89.00;56.35;;;;;;;17.74;88.38;101172.72;5091321;28;20115;-80
2021/09/09 06:10:11;;;;;;;87.45;52.38;;;;;;;17.77;88.30;101173.22;5071494;28;20021;-81
2021/09/09 06:12:36;;;;;;;93.28;55.10;;;;;;;17.80;88.49;101173.44;5082811;28;20107;-80
2021/09/09 06:15:04;;;;;;;82.35;51.40;;;;;;;17.82;88.48;101182.22;5082124;28;20103;-81
2021/09/09 06:17:29;;;;;;;80.03;49.63;;;;;;;17.84;88.21;101174.44;5088052;28;20150;-81
2021/09/09 06:19:54;;;;;;;77.15;49.17;;;;;;;17.85;88.22;101170.53;5085898;28;20148;-81
2021/09/09 06:22:20;;;;;;;81.20;51.42;;;;;;;17.87;88.12;101175.72;5083691;28;20069;-78
2021/09/09 06:24:45;;;;;;;78.40;50.45;;;;;;;17.89;88.13;101174.28;5090160;28;20488;-80
2021/09/09 06:27:10;;;;;;;75.18;48.58;;;;;;;17.92;88.25;101175.59;5092647;28;20061;-80
2021/09/09 06:29:36;;;;;;;75.57;49.60;;;;;;;17.93;87.97;101174.50;5091339;28;20453;-79
2021/09/09 06:32:01;;;;;;;72.60;49.92;;;;;;;17.96;87.78;101171.91;5085380;28;20024;-80
2021/09/09 06:34:27;;;;;;;75.03;49.20;;;;;;;18.00;87.75;101166.59;5085338;28;20032;-80
2021/09/09 06:36:52;;;;;;;79.53;49.20;;;;;;;18.04;87.91;101172.31;5093356;28;20012;-80
2021/09/09 06:39:19;;;;;;;80.38;51.45;;;;;;;18.05;87.53;101174.72;5087126;28;20307;-79
2021/09/09 06:41:45;;;;;;;81.15;48.80;;;;;;;18.09;87.42;101172.19;5093564;28;20127;-79
2021/09/09 06:44:14;;;;;;;78.57;48.17;;;;;;;18.12;87.49;101172.34;5093884;28;20154;-78
2021/09/09 06:46:39;;;;;;;79.22;49.78;;;;;;;18.14;87.44;101170.09;5091863;28;20023;-80
2021/09/09 06:49:05;;;;;;;81.47;49.67;;;;;;;18.18;87.25;101179.34;5085534;28;20370;-78
2021/09/09 06:51:31;;;;;;;76.88;48.70;;;;;;;18.22;87.27;101178.72;5085307;28;20032;-80
2021/09/09 06:53:56;;;;;;;71.70;48.67;;;;;;;18.23;86.92;101174.84;5093189;28;20034;-79
2021/09/09 06:56:22;;;;;;;80.25;50.33;;;;;;;18.24;86.96;101182.00;5090193;28;20028;-79
2021/09/09 06:58:47;;;;;;;71.32;48.00;;;;;;;18.22;86.94;101181.47;5092008;28;20086;-80
2021/09/09 07:01:13;;;;;;;74.78;46.92;;;;;;;18.21;86.75;101175.16;5087437;28;20036;-78
2021/09/09 07:03:38;;;;;;;78.07;49.78;;;;;;;18.20;86.60;101187.34;5094496;28;20035;-78
2021/09/09 07:06:03;;;;;;;77.07;47.60;;;;;;;18.18;86.71;101181.31;5095294;28;20475;-79
2021/09/09 07:08:29;;;;;;;69.10;47.40;;;;;;;18.18;86.73;101182.13;5080778;28;20397;-78
2021/09/09 07:10:55;;;;;;;71.97;45.90;;;;;;;18.21;86.75;101182.63;5089050;28;20032;-79
2021/09/09 07:13:21;;;;;;;73.18;47.60;;;;;;;18.23;86.75;101175.66;5094370;28;20452;-80
2021/09/09 07:15:46;;;;;;;73.72;47.88;;;;;;;18.23;86.65;101181.19;5092111;28;20028;-79
2021/09/09 07:18:12;;;;;;;74.07;47.17;;;;;;;18.23;86.56;101178.44;5092467;28;20092;-80
2021/09/09 07:20:37;;;;;;;71.03;46.15;;;;;;;18.26;86.08;101193.53;5091857;28;20039;-79
2021/09/09 07:23:03;;;;;;;69.10;45.03;;;;;;;18.27;85.83;101181.34;5091899;28;20024;-79
2021/09/09 07:25:28;;;;;;;75.80;47.38;;;;;;;18.33;86.08;101188.38;5090190;28;20028;-79
2021/09/09 07:27:53;;;;;;;65.15;44.85;;;;;;;18.35;86.50;101183.34;5089456;28;20016;-78
2021/09/09 07:30:19;;;;;;;66.32;44.70;;;;;;;18.34;85.67;101187.25;5090725;28;20031;-79
2021/09/09 07:32:44;;;;;;;70.05;46.72;;;;;;;18.33;86.08;101191.13;5085918;28;20355;-79
2021/09/09 07:35:10;;;;;;;63.63;45.25;;;;;;;18.34;85.80;101192.78;5088525;28;20551;-80
2021/09/09 07:37:36;;;;;;;68.93;44.50;;;;;;;18.37;85.51;101186.63;5089673;28;20020;-79
2021/09/09 07:40:03;;;;;;;71.97;46.20;;;;;;;18.42;85.38;101189.25;5072265;28;20027;-80
2021/09/09 07:42:30;;;;;;;66.55;43.65;;;;;;;18.43;85.32;101185.34;5088788;28;20150;-79
2021/09/09 07:44:55;;;;;;;61.95;43.35;;;;;;;18.46;85.33;101183.91;5094966;28;20024;-80
2021/09/09 07:47:20;;;;;;;70.18;44.95;;;;;;;18.51;84.98;101186.53;5082300;28;20035;-80
2021/09/09 07:49:47;;;;;;;67.72;44.45;;;;;;;18.55;84.90;101193.88;5089447;28;20074;-80
2021/09/09 07:52:12;;;;;;;69.32;45.60;;;;;;;18.56;84.73;101192.72;5090238;28;20043;-80
2021/09/09 07:54:38;;;;;;;61.92;41.50;;;;;;;18.60;84.67;101195.66;5087259;28;20024;-80
2021/09/09 07:57:03;;;;;;;58.92;41.88;;;;;;;18.66;84.49;101205.44;5092736;28;20031;-79
2021/09/09 07:59:28;;;;;;;58.30;41.20;;;;;;;18.68;84.40;101196.81;5087936;28;20067;-81
2021/09/09 08:01:54;;;;;;;58.58;42.08;;;;;;;18.69;84.13;101202.03;5091799;28;20043;-80
2021/09/09 08:04:19;;;;;;;60.63;42.40;;;;;;;18.68;84.09;101202.34;5083481;28;20385;-80
2021/09/09 08:06:45;;;;;;;63.20;43.20;;;;;;;18.72;84.12;101203.34;5090555;28;20505;-80
2021/09/09 08:09:10;;;;;;;64.80;44.70;;;;;;;18.78;84.03;101213.16;5085545;28;20073;-79
2021/09/09 08:11:36;;;;;;;67.75;43.22;;;;;;;18.83;83.65;101215.78;5093851;28;20032;-80
2021/09/09 08:14:01;;;;;;;62.47;42.15;;;;;;;18.79;83.48;101221.09;5089497;28;20032;-83
2021/09/09 08:16:27;;;;;;;61.00;41.60;;;;;;;18.84;83.25;101220.97;5092328;28;20028;-83
2021/09/09 08:18:52;;;;;;;62.55;42.17;;;;;;;18.89;83.24;101231.06;5086705;28;20385;-83
2021/09/09 08:21:19;;;;;;;64.82;40.08;;;;;;;18.91;83.21;101220.50;5088338;28;20038;-83
2021/09/09 08:23:44;;;;;;;57.17;39.40;;;;;;;18.97;82.84;101227.53;5090259;28;20480;-83
2021/09/09 08:26:09;;;;;;;61.47;40.42;;;;;;;19.05;82.74;101229.50;5090812;28;20104;-83
2021/09/09 08:28:37;;;;;;;63.90;41.72;;;;;;;19.08;82.41;101226.09;5086697;28;20051;-82
2021/09/09 08:31:02;;;;;;;59.88;41.15;;;;;;;19.11;82.25;101224.63;5091099;28;20489;-83
2021/09/09 08:33:30;;;;;;;62.65;40.33;;;;;;;19.08;81.79;101228.03;5088909;28;20028;-83
2021/09/09 08:35:55;;;;;;;61.05;43.20;;;;;;;19.07;81.93;101234.72;5091405;28;20020;-84
2021/09/09 08:38:21;;;;;;;57.20;40.83;;;;;;;19.09;81.76;101243.47;5092205;28;20081;-84
2021/09/09 08:40:49;;;;;;;63.97;42.20;;;;;;;19.10;81.49;101233.22;5094088;28;20388;-84
2021/09/09 08:43:14;;;;;;;54.88;41.28;;;;;;;19.08;81.61;101239.91;5090558;28;20090;-83
2021/09/09 08:45:40;;;;;;;59.17;41.92;;;;;;;19.08;81.37;101242.66;5089152;28;20020;-85
2021/09/09 08:48:07;;;;;;;60.10;41.65;;;;;;;19.10;81.61;101244.28;5086307;28;20016;-85
2021/09/09 08:50:32;;;;;;;63.88;41.88;;;;;;;19.13;81.43;101240.91;5089172;28;20070;-84
2021/09/09 08:52:59;;;;;;;59.83;42.92;;;;;;;19.20;81.36;101244.81;5077641;28;20034;-86
2021/09/09 08:55:25;;;;;;;62.08;42.30;;;;;;;19.25;81.04;101241.09;5089656;28;20031;-83
2021/09/09 08:57:51;;;;;;;61.08;41.50;;;;;;;19.30;80.82;101241.75;5089618;28;20039;-85
2021/09/09 09:00:16;;;;;;;62.72;41.85;;;;;;;19.39;80.78;101239.00;5087080;28;20028;-84
2021/09/09 09:02:49;;;;;;;56.28;41.13;;;;;;;19.43;80.76;101228.94;5084411;28;20035;-85
2021/09/09 09:05:15;;;;;;;55.63;40.15;;;;;;;19.42;80.40;101238.34;5085483;28;20396;-85
2021/09/09 09:07:40;;;;;;;57.67;40.40;;;;;;;19.47;80.63;101243.72;5090152;28;20024;-85
2021/09/09 09:10:07;;;;;;;54.40;39.58;;;;;;;19.52;80.20;101238.06;5088725;28;20032;-84
2021/09/09 09:12:42;;;;;;;54.17;39.53;;;;;;;19.54;80.21;101234.16;5090800;28;20387;-85
2021/09/09 09:15:12;;;;;;;49.15;37.90;;;;;;;19.54;79.91;101236.94;5085299;28;20354;-85
2021/09/09 09:18:01;;;;;;;53.78;37.67;;;;;;;19.48;79.65;101236.28;5090908;28;20024;-84
2021/09/09 09:20:38;;;;;;;55.03;38.13;;;;;;;19.59;79.50;101226.53;5083180;28;20691;-83
2021/09/09 09:23:10;;;;;;;49.90;36.92;;;;;;;19.66;79.69;101229.63;5084686;28;20020;-84
2021/09/09 09:25:43;;;;;;;56.78;37.78;;;;;;;19.69;79.40;101236.47;5090039;28;20035;-84
2021/09/09 09:28:10;;;;;;;53.08;35.58;;;;;;;19.76;79.07;101230.47;5091078;28;20035;-85
2021/09/09 09:30:36;;;;;;;53.80;38.20;;;;;;;19.77;79.02;101234.84;5055145;28;20039;-85
2021/09/09 09:33:01;;;;;;;50.38;37.33;;;;;;;19.71;78.58;101231.44;5084695;28;20036;-84
2021/09/09 09:35:27;;;;;;;57.60;37.13;;;;;;;19.71;79.03;101225.91;5092023;28;20024;-84
2021/09/09 09:37:57;;;;;;;54.40;36.50;;;;;;;19.83;79.00;101234.34;5090618;28;20032;-85
2021/09/09 09:40:30;;;;;;;55.80;38.30;;;;;;;19.89;78.90;101227.53;5089614;28;20028;-85
2021/09/09 09:42:56;;;;;;;54.20;36.60;;;;;;;19.98;78.50;101221.19;5092828;28;20059;-84
2021/09/09 09:45:22;;;;;;;53.58;36.95;;;;;;;20.02;78.69;101227.69;5085195;28;20394;-85
2021/09/09 09:47:47;;;;;;;57.08;37.22;;;;;;;20.08;78.19;101226.34;5094256;28;20027;-83
2021/09/09 09:50:19;;;;;;;54.28;37.97;;;;;;;20.14;77.99;101225.06;5074710;28;20036;-84
2021/09/09 09:52:46;;;;;;;45.83;33.55;;;;;;;20.22;77.57;101224.25;5085182;28;20035;-83
2021/09/09 09:55:12;;;;;;;50.65;35.00;;;;;;;20.22;76.92;101218.72;5089673;28;20098;-85
2021/09/09 09:57:52;;;;;;;47.00;34.65;;;;;;;20.17;76.85;101218.88;5091897;28;20427;-83
2021/09/09 10:00:17;;;;;;;45.95;34.72;;;;;;;20.21;76.68;101208.75;5092741;28;20024;-75
2021/09/09 10:02:43;;;;;;;54.63;35.60;;;;;;;20.25;76.58;101222.78;5089104;28;20020;-75
2021/09/09 10:05:08;;;;;;;46.67;34.83;;;;;;;20.26;76.12;101216.91;5088930;28;20043;-75
2021/09/09 10:07:34;;;;;;;49.28;35.45;;;;;;;20.26;76.12;101229.94;5066019;28;20103;-75
2021/09/09 10:09:59;;;;;;;50.38;36.67;;;;;;;20.25;75.95;101223.59;5091146;28;20035;-75
2021/09/09 10:12:26;;;;;;;49.10;35.30;;;;;;;20.28;75.67;101216.56;5091585;28;20032;-76
2021/09/09 10:14:51;;;;;;;49.85;34.67;;;;;;;20.36;76.02;101219.31;5092781;28;20099;-74
2021/09/09 10:17:18;;;;;;;49.40;34.92;;;;;;;20.51;76.16;101217.16;5094199;28;20078;-75
2021/09/09 10:19:43;;;;;;;48.58;36.70;;;;;;;20.62;75.64;101215.69;5094708;28;20032;-80
2021/09/09 10:22:11;;;;;;;51.85;37.50;;;;;;;20.65;75.71;101222.50;5087771;28;20028;-79
2021/09/09 10:24:37;;;;;;;48.63;36.80;;;;;;;20.63;75.59;101220.09;5092416;28;20047;-80
2021/09/09 10:27:33;;;;;;;49.40;36.88;;;;;;;20.69;75.30;101224.28;5095894;28;20024;-80
2021/09/09 10:30:19;;;;;;;46.42;35.20;;;;;;;20.71;74.94;101216.47;5090136;28;20162;-79
2021/09/09 10:32:54;;;;;;;46.58;35.03;;;;;;;20.80;75.14;101220.00;5085826;28;20063;-80
2021/09/09 10:35:19;;;;;;;51.58;36.00;;;;;;;20.86;74.74;101217.06;5093658;28;20031;-80
2021/09/09 10:37:58;;;;;;;48.25;36.22;;;;;;;20.93;74.58;101209.84;5092420;28;20023;-80
2021/09/09 10:40:37;;;;;;;52.47;36.63;;;;;;;20.99;74.47;101207.69;5088575;28;20028;-79
2021/09/09 10:43:06;;;;;;;48.38;36.33;;;;;;;20.97;74.30;101208.03;5087807;28;20127;-81
2021/09/09 10:45:35;;;;;;;46.30;34.38;;;;;;;21.00;74.10;101209.31;5091710;28;20028;-81
2021/09/09 10:48:04;;;;;;;48.85;35.15;;;;;;;21.08;73.77;101202.91;5089965;28;20020;-81
2021/09/09 10:50:29;;;;;;;46.05;34.80;;;;;;;21.17;73.21;101206.47;5087153;28;20043;-81
2021/09/09 10:53:02;;;;;;;48.15;34.67;;;;;;;21.23;72.78;101198.75;5088913;28;20028;-81
2021/09/09 10:55:28;;;;;;;44.65;33.05;;;;;;;21.35;73.05;101206.34;5084498;28;20028;-81
2021/09/09 10:58:15;;;;;;;44.60;32.35;;;;;;;21.44;72.65;101201.56;5082534;28;20024;-81
2021/09/09 11:00:56;;;;;;;42.75;31.48;;;;;;;21.53;72.21;101207.88;5088869;28;20024;-82
2021/09/09 11:03:43;;;;;;;41.63;30.77;;;;;;;21.60;71.97;101197.03;5079206;28;20031;-81
2021/09/09 11:06:09;;;;;;;41.72;30.50;;;;;;;21.72;71.80;101194.34;5090416;28;20103;-80